createdAt,value
2022-11-04T00:01:21.388Z,12.82
2022-11-04T00:03:48.971Z,12.85
2022-11-04T00:06:16.549Z,12.92
2022-11-04T00:08:44.156Z,12.89
2022-11-04T00:11:29.372Z,12.67
2022-11-04T00:13:56.926Z,12.69
2022-11-04T00:16:43.187Z,12.79
2022-11-04T00:19:10.758Z,12.57
2022-11-04T00:21:55.703Z,12.55
2022-11-04T00:24:46.100Z,12.40
2022-11-04T00:27:31.737Z,12.66
2022-11-04T00:29:59.371Z,12.32
2022-11-04T00:32:46.046Z,12.26
2022-11-04T00:35:13.872Z,12.36
2022-11-04T00:37:41.793Z,12.18
2022-11-04T00:40:10.163Z,12.36
2022-11-04T00:42:37.737Z,12.31
2022-11-04T00:45:06.030Z,12.21
2022-11-04T00:47:35.028Z,12.04
2022-11-04T00:50:02.576Z,12.12
2022-11-04T00:52:30.256Z,12.43
2022-11-04T00:54:57.822Z,12.18
2022-11-04T00:57:25.381Z,12.17
2022-11-04T00:59:52.948Z,12.19
2022-11-04T01:02:20.675Z,12.19
2022-11-04T01:04:49.850Z,12.00
2022-11-04T01:07:17.451Z,12.00
2022-11-04T01:09:45.017Z,12.32
2022-11-04T01:12:12.648Z,11.84
2022-11-04T01:14:40.221Z,11.67
2022-11-04T01:17:07.816Z,11.77
2022-11-04T01:19:35.405Z,11.76
2022-11-04T01:22:04.368Z,11.83
2022-11-04T01:24:31.882Z,11.74
2022-11-04T01:26:59.460Z,11.94
2022-11-04T01:29:27.038Z,11.75
2022-11-04T01:31:54.586Z,11.96
2022-11-04T01:34:22.155Z,11.91
2022-11-04T01:36:49.747Z,11.99
2022-11-04T01:39:18.727Z,12.23
2022-11-04T01:41:46.310Z,11.94
2022-11-04T01:44:32.517Z,11.96
2022-11-04T01:47:00.140Z,11.95
2022-11-04T01:49:28.550Z,11.88
2022-11-04T01:51:57.667Z,11.77
2022-11-04T01:54:26.615Z,11.82
2022-11-04T01:56:54.233Z,11.83
2022-11-04T01:59:22.398Z,12.04
2022-11-04T02:01:50.253Z,11.92
2022-11-04T02:04:27.018Z,11.75
2022-11-04T02:06:55.459Z,11.89
2022-11-04T02:09:23.697Z,11.76
2022-11-04T02:12:09.695Z,12.08
2022-11-04T02:14:37.282Z,12.00
2022-11-04T02:17:10.952Z,12.02
2022-11-04T02:19:44.149Z,11.75
2022-11-04T02:22:22.981Z,11.75
2022-11-04T02:24:56.125Z,11.81
2022-11-04T02:27:30.676Z,11.92
2022-11-04T02:30:02.488Z,11.77
2022-11-04T02:32:33.268Z,11.98
2022-11-04T02:35:02.853Z,11.87
2022-11-04T02:37:33.446Z,11.80
2022-11-04T02:40:05.149Z,11.58
2022-11-04T02:42:34.451Z,11.38
2022-11-04T02:45:07.548Z,11.32
2022-11-04T02:47:35.144Z,11.35
2022-11-04T02:50:04.597Z,11.33
2022-11-04T02:52:33.879Z,11.29
2022-11-04T02:55:01.918Z,11.17
2022-11-04T02:57:30.357Z,11.17
2022-11-04T02:59:58.252Z,11.29
2022-11-04T03:02:28.446Z,11.36
2022-11-04T03:04:56.050Z,11.16
2022-11-04T03:07:24.068Z,11.12
2022-11-04T03:09:52.459Z,11.20
2022-11-04T03:12:21.412Z,11.11
2022-11-04T03:14:50.240Z,11.15
2022-11-04T03:17:19.474Z,11.15
2022-11-04T03:19:48.872Z,11.25
2022-11-04T03:22:17.476Z,11.14
2022-11-04T03:24:45.854Z,11.03
2022-11-04T03:27:15.190Z,10.92
2022-11-04T03:29:44.763Z,10.88
2022-11-04T03:32:14.526Z,10.87
2022-11-04T03:34:42.407Z,10.77
2022-11-04T03:37:11.521Z,10.95
2022-11-04T03:39:39.617Z,11.07
2022-11-04T03:42:19.947Z,10.86
2022-11-04T03:44:48.388Z,10.87
2022-11-04T03:47:16.612Z,10.94
2022-11-04T03:49:44.384Z,10.94
2022-11-04T03:52:13.412Z,11.06
2022-11-04T03:54:41.061Z,11.15
2022-11-04T03:57:15.999Z,10.88
2022-11-04T03:59:51.871Z,10.91
2022-11-04T04:02:20.230Z,11.00
2022-11-04T04:04:50.049Z,10.97
2022-11-04T04:07:19.575Z,10.86
2022-11-04T04:09:48.048Z,11.06
2022-11-04T04:12:16.867Z,11.13
2022-11-04T04:14:45.739Z,10.83
2022-11-04T04:17:15.571Z,10.98
2022-11-04T04:19:43.351Z,11.01
2022-11-04T04:22:11.756Z,10.89
2022-11-04T04:24:58.682Z,10.85
2022-11-04T04:27:35.196Z,10.97
2022-11-04T04:30:03.527Z,10.98
2022-11-04T04:32:31.284Z,11.17
2022-11-04T04:35:12.736Z,11.05
2022-11-04T04:37:40.841Z,11.03
2022-11-04T04:40:28.014Z,10.93
2022-11-04T04:43:12.548Z,11.23
2022-11-04T04:45:41.058Z,11.01
2022-11-04T04:48:08.979Z,10.95
2022-11-04T04:50:37.208Z,10.89
2022-11-04T04:53:05.121Z,10.81
2022-11-04T04:55:38.964Z,10.85
2022-11-04T04:58:09.633Z,10.98
2022-11-04T05:00:37.167Z,10.88
2022-11-04T05:03:04.925Z,10.81
2022-11-04T05:05:32.503Z,10.53
2022-11-04T05:08:05.098Z,10.62
2022-11-04T05:10:34.300Z,10.97
2022-11-04T05:13:19.709Z,10.77
2022-11-04T05:15:47.266Z,10.61
2022-11-04T05:18:14.831Z,10.56
2022-11-04T05:20:42.381Z,10.75
2022-11-04T05:23:12.053Z,10.84
2022-11-04T05:25:41.110Z,10.76
2022-11-04T05:28:08.973Z,10.89
2022-11-04T05:30:36.889Z,10.79
2022-11-04T05:33:05.181Z,10.76
2022-11-04T05:35:33.191Z,11.09
2022-11-04T05:38:01.124Z,11.18
2022-11-04T05:40:28.671Z,11.29
2022-11-04T05:43:00.018Z,11.34
2022-11-04T05:45:27.599Z,11.04
2022-11-04T05:47:58.528Z,11.10
2022-11-04T05:50:26.128Z,11.02
2022-11-04T05:52:53.714Z,10.89
2022-11-04T05:55:21.226Z,11.05
2022-11-04T05:57:48.788Z,11.07
2022-11-04T06:00:17.985Z,10.88
2022-11-04T06:02:45.677Z,10.99
2022-11-04T06:05:13.595Z,10.93
2022-11-04T06:07:41.192Z,11.05
2022-11-04T06:10:09.059Z,11.28
2022-11-04T06:12:36.628Z,11.22
2022-11-04T06:15:04.566Z,11.32
2022-11-04T06:17:33.468Z,11.62
2022-11-04T06:20:01.081Z,11.63
2022-11-04T06:22:28.640Z,11.73
2022-11-04T06:24:56.430Z,11.88
2022-11-04T06:27:24.011Z,11.92
2022-11-04T06:29:52.772Z,12.12
2022-11-04T06:32:20.394Z,11.92
2022-11-04T06:34:49.334Z,11.94
2022-11-04T06:37:16.886Z,11.83
2022-11-04T06:39:45.490Z,12.05
2022-11-04T06:42:13.044Z,12.04
2022-11-04T06:44:40.679Z,12.01
2022-11-04T06:47:11.716Z,12.05
2022-11-04T06:49:39.886Z,11.99
2022-11-04T06:52:08.819Z,11.81
2022-11-04T06:54:36.358Z,12.00
2022-11-04T06:57:04.269Z,12.31
2022-11-04T06:59:31.831Z,12.48
2022-11-04T07:01:59.613Z,12.57
2022-11-04T07:04:27.282Z,12.32
2022-11-04T07:06:54.823Z,12.42
2022-11-04T07:09:23.788Z,12.48
2022-11-04T07:11:51.373Z,12.38
2022-11-04T07:14:18.959Z,12.37
2022-11-04T07:16:46.509Z,12.38
2022-11-04T07:19:14.120Z,12.44
2022-11-04T07:21:41.908Z,12.34
2022-11-04T07:24:09.575Z,12.46
2022-11-04T07:26:38.566Z,12.53
2022-11-04T07:29:06.725Z,12.42
2022-11-04T07:31:34.370Z,12.42
2022-11-04T07:34:03.053Z,12.58
2022-11-04T07:36:30.761Z,12.85
2022-11-04T07:38:58.327Z,12.75
2022-11-04T07:41:25.860Z,13.10
2022-11-04T07:43:55.012Z,12.85
2022-11-04T07:46:22.784Z,13.05
2022-11-04T07:48:50.392Z,13.33
2022-11-04T07:51:19.123Z,13.37
2022-11-04T07:53:46.879Z,13.37
2022-11-04T07:56:14.837Z,13.38
2022-11-04T07:58:42.594Z,13.49
2022-11-04T08:01:12.844Z,13.59
2022-11-04T08:03:40.447Z,13.32
2022-11-04T08:06:09.421Z,13.22
2022-11-04T08:08:37.378Z,13.27
2022-11-04T08:11:06.223Z,13.32
2022-11-04T08:13:34.999Z,13.46
2022-11-04T08:16:03.127Z,13.32
2022-11-04T08:18:33.053Z,13.68
2022-11-04T08:21:02.355Z,14.03
2022-11-04T08:23:30.002Z,13.72
2022-11-04T08:25:57.702Z,13.78
2022-11-04T08:28:25.481Z,14.21
2022-11-04T08:30:53.988Z,14.16
2022-11-04T08:33:21.571Z,14.11
2022-11-04T08:35:50.526Z,13.97
2022-11-04T08:38:18.192Z,14.28
2022-11-04T08:40:45.748Z,14.10
2022-11-04T08:43:13.592Z,14.10
2022-11-04T08:45:41.667Z,14.13
2022-11-04T08:48:09.924Z,14.17
2022-11-04T08:50:37.763Z,14.47
2022-11-04T08:53:07.099Z,14.24
2022-11-04T08:55:35.024Z,14.11
2022-11-04T08:58:03.372Z,14.35
2022-11-04T09:00:33.008Z,14.34
2022-11-04T09:03:00.716Z,14.50
2022-11-04T09:05:28.776Z,14.30
2022-11-04T09:07:56.599Z,14.23
2022-11-04T09:10:25.624Z,14.53
2022-11-04T09:12:53.259Z,14.69
2022-11-04T09:15:20.803Z,14.97
2022-11-04T09:17:48.428Z,15.09
2022-11-04T09:20:16.153Z,14.99
2022-11-04T09:22:45.966Z,14.61
2022-11-04T09:25:13.759Z,14.36
2022-11-04T09:27:42.688Z,14.72
2022-11-04T09:30:11.093Z,14.88
2022-11-04T09:32:38.681Z,15.34
2022-11-04T09:35:06.439Z,15.79
2022-11-04T09:37:33.992Z,16.03
2022-11-04T09:40:01.615Z,15.93
2022-11-04T09:42:35.632Z,15.74
2022-11-04T09:45:22.801Z,15.62
2022-11-04T09:47:51.216Z,16.09
2022-11-04T09:50:20.241Z,15.99
2022-11-04T09:52:49.171Z,16.11
2022-11-04T09:55:17.843Z,16.09
2022-11-04T09:57:45.502Z,16.49
2022-11-04T10:00:17.448Z,16.19
2022-11-04T10:02:47.812Z,15.71
2022-11-04T10:05:18.271Z,15.66
2022-11-04T10:07:48.720Z,15.51
2022-11-04T10:10:17.921Z,15.71
2022-11-04T10:13:01.905Z,15.72
2022-11-04T10:15:50.147Z,15.84
2022-11-04T10:18:22.619Z,16.04
2022-11-04T10:20:51.557Z,15.56
2022-11-04T10:23:22.069Z,15.50
2022-11-04T10:25:50.483Z,16.25
2022-11-04T10:28:18.977Z,16.70
2022-11-04T10:30:47.228Z,16.15
2022-11-04T10:33:27.817Z,16.28
2022-11-04T10:35:58.372Z,17.15
2022-11-04T10:38:28.944Z,17.53
2022-11-04T10:40:57.155Z,17.50
2022-11-04T10:43:26.776Z,18.07
2022-11-04T10:45:58.265Z,19.25
2022-11-04T10:48:26.890Z,19.02
2022-11-04T10:50:54.787Z,18.04
2022-11-04T10:53:25.006Z,18.39
2022-11-04T10:55:53.424Z,18.29
2022-11-04T10:58:23.154Z,18.40
2022-11-04T11:00:51.604Z,18.04
2022-11-04T11:03:29.576Z,17.54
2022-11-04T11:06:10.919Z,17.21
2022-11-04T11:08:40.228Z,16.77
2022-11-04T11:11:07.860Z,16.55
2022-11-04T11:13:36.212Z,16.63
2022-11-04T11:16:07.793Z,16.68
2022-11-04T11:18:37.153Z,16.54
2022-11-04T11:21:06.230Z,16.51
2022-11-04T11:23:34.976Z,16.61
2022-11-04T11:26:04.574Z,16.73
2022-11-04T11:28:37.948Z,16.58
2022-11-04T11:31:08.554Z,16.80
2022-11-04T11:33:36.687Z,16.72
2022-11-04T11:36:06.858Z,16.46
2022-11-04T11:38:34.656Z,16.92
2022-11-04T11:41:24.523Z,16.92
2022-11-04T11:43:53.695Z,16.63
2022-11-04T11:46:22.555Z,16.70
2022-11-04T11:48:51.766Z,16.92
2022-11-04T11:51:29.063Z,17.24
2022-11-04T11:54:02.543Z,17.57
2022-11-04T11:56:45.846Z,18.37
2022-11-04T12:02:21.769Z,17.59
2022-11-04T12:10:49.161Z,17.45
2022-11-04T12:13:23.603Z,17.51
2022-11-04T12:16:00.927Z,18.13
2022-11-04T12:18:46.441Z,17.87
2022-11-04T12:21:15.903Z,18.26
2022-11-04T12:23:46.223Z,17.55
2022-11-04T12:26:18.512Z,17.21
2022-11-04T12:28:51.697Z,17.53
2022-11-04T12:31:21.665Z,16.59
2022-11-04T12:33:50.846Z,16.27
2022-11-04T12:36:23.052Z,16.30
2022-11-04T12:38:54.201Z,16.77
2022-11-04T12:41:59.249Z,16.86
2022-11-04T12:44:14.377Z,16.20
2022-11-04T12:46:43.166Z,17.03
2022-11-04T12:49:25.642Z,17.26
2022-11-04T12:51:54.843Z,17.42
2022-11-04T12:54:25.690Z,17.02
2022-11-04T12:56:54.431Z,16.86
2022-11-04T12:59:31.364Z,17.74
2022-11-04T13:01:59.906Z,17.94
2022-11-04T13:04:29.501Z,17.78
2022-11-04T13:06:57.768Z,17.52
2022-11-04T13:09:27.081Z,17.35
2022-11-04T13:11:55.570Z,17.44
2022-11-04T13:14:29.378Z,17.02
2022-11-04T13:17:00.298Z,17.30
2022-11-04T13:19:31.546Z,17.67
2022-11-04T13:21:59.549Z,17.37
2022-11-04T13:24:30.310Z,16.90
2022-11-04T13:26:58.179Z,17.04
2022-11-04T13:29:25.958Z,17.82
2022-11-04T13:31:54.751Z,17.89
2022-11-04T13:34:33.005Z,17.98
2022-11-04T13:37:03.800Z,17.74
2022-11-04T13:39:33.163Z,17.29
2022-11-04T13:42:07.093Z,16.83
2022-11-04T13:44:36.959Z,16.99
2022-11-04T13:47:05.575Z,17.75
2022-11-04T13:49:34.640Z,18.14
2022-11-04T13:52:02.913Z,18.40
2022-11-04T13:54:31.237Z,18.27
2022-11-04T13:57:05.874Z,18.25
2022-11-04T13:59:33.660Z,17.95
2022-11-04T14:02:19.781Z,17.78
2022-11-04T14:04:48.813Z,17.75
2022-11-04T14:07:17.935Z,17.54
2022-11-04T14:09:54.511Z,16.87
2022-11-04T14:12:40.200Z,17.58
2022-11-04T14:15:14.916Z,17.95
2022-11-04T14:18:01.411Z,18.15
2022-11-04T14:20:32.776Z,17.66
2022-11-04T14:23:00.688Z,17.76
2022-11-04T14:25:29.375Z,17.49
2022-11-04T14:27:57.291Z,17.53
2022-11-04T14:30:35.773Z,17.29
2022-11-04T14:33:04.280Z,17.75
2022-11-04T14:35:33.264Z,18.01
2022-11-04T14:38:02.432Z,17.82
2022-11-04T14:40:30.549Z,17.17
2022-11-04T14:42:58.251Z,17.47
2022-11-04T14:45:26.474Z,17.17
2022-11-04T14:47:54.872Z,16.96
2022-11-04T14:50:25.035Z,17.19
2022-11-04T14:52:55.326Z,17.19
2022-11-04T14:55:23.666Z,17.19
2022-11-04T14:57:51.861Z,17.21
2022-11-04T15:00:22.100Z,17.38
2022-11-04T15:02:49.718Z,17.33
2022-11-04T15:05:22.572Z,17.62
2022-11-04T15:07:50.147Z,17.58
2022-11-04T15:10:22.637Z,17.63
2022-11-04T15:12:54.556Z,17.48
2022-11-04T15:15:36.101Z,17.47
2022-11-04T15:18:05.236Z,17.38
2022-11-04T15:20:32.890Z,17.36
2022-11-04T15:23:01.635Z,17.66
2022-11-04T15:25:30.598Z,17.59
2022-11-04T15:27:58.139Z,17.74
2022-11-04T15:30:26.286Z,17.67
2022-11-04T16:08:24.335Z,16.50
2022-11-04T16:10:52.305Z,16.68
2022-11-04T16:13:24.280Z,15.14
2022-11-04T16:15:54.657Z,16.39
2022-11-04T16:18:24.848Z,16.98
2022-11-04T16:20:54.087Z,16.81
2022-11-04T16:23:25.396Z,17.26
2022-11-04T16:25:57.946Z,17.47
2022-11-04T16:28:25.746Z,16.97
2022-11-04T16:30:58.116Z,17.03
2022-11-04T16:33:25.895Z,17.01
2022-11-04T16:35:53.722Z,17.15
2022-11-04T16:38:23.109Z,17.24
2022-11-04T16:40:51.235Z,17.25
2022-11-04T16:43:22.037Z,17.29
2022-11-04T16:45:53.824Z,17.15
2022-11-04T16:48:23.740Z,17.41
2022-11-04T16:50:51.680Z,17.28
2022-11-04T16:53:19.552Z,17.41
2022-11-04T16:55:48.768Z,17.37
2022-11-04T16:58:19.187Z,17.40
2022-11-04T17:00:47.084Z,17.22
2022-11-04T17:03:21.747Z,17.38
2022-11-04T17:05:50.028Z,17.26
2022-11-04T17:08:17.792Z,16.97
2022-11-04T17:10:45.586Z,15.73
2022-11-04T17:13:14.738Z,15.13
2022-11-04T17:15:42.908Z,16.92
2022-11-04T17:18:11.030Z,17.37
2022-11-04T17:20:40.988Z,17.68
2022-11-04T17:23:09.580Z,17.51
2022-11-04T17:25:37.500Z,17.59
2022-11-04T17:28:05.443Z,17.55
2022-11-04T17:30:34.587Z,17.41
2022-11-04T17:33:06.204Z,17.33
2022-11-04T17:35:35.140Z,17.26
2022-11-04T17:38:02.988Z,17.19
2022-11-04T17:40:31.064Z,16.91
2022-11-04T17:43:16.343Z,16.88
2022-11-04T17:45:45.660Z,17.23
2022-11-04T17:48:14.183Z,17.33
2022-11-04T17:50:42.318Z,17.03
2022-11-04T17:53:10.453Z,14.73
2022-11-04T17:55:40.467Z,16.08
2022-11-04T17:58:08.596Z,16.32
2022-11-04T18:00:36.397Z,14.71
2022-11-04T18:03:06.770Z,14.31
2022-11-04T18:05:34.841Z,14.13
2022-11-04T18:08:02.644Z,14.14
2022-11-04T18:10:30.448Z,14.19
2022-11-04T18:12:57.211Z,14.06
2022-11-04T18:15:25.499Z,14.30
2022-11-04T18:17:53.523Z,15.55
2022-11-04T18:20:23.291Z,14.11
2022-11-04T18:22:51.019Z,14.34
2022-11-04T18:25:19.003Z,14.47
2022-11-04T18:27:48.810Z,14.54
2022-11-04T18:30:16.986Z,14.28
2022-11-04T18:32:44.791Z,14.38
2022-11-04T18:35:12.658Z,14.45
2022-11-04T18:37:46.784Z,14.18
2022-11-04T18:40:15.126Z,14.20
2022-11-04T18:42:42.976Z,14.18
2022-11-04T18:45:11.436Z,14.40
2022-11-04T18:47:39.181Z,14.46
2022-11-04T18:50:07.976Z,14.19
2022-11-04T18:52:35.686Z,14.11
2022-11-04T18:55:05.152Z,13.82
2022-11-04T18:57:32.916Z,13.70
2022-11-04T19:00:01.051Z,13.93
2022-11-04T19:02:29.051Z,14.01
2022-11-04T19:04:56.914Z,13.75
2022-11-04T19:07:24.828Z,15.33
2022-11-04T19:09:54.549Z,14.25
2022-11-04T19:12:40.987Z,13.85
2022-11-04T19:15:09.348Z,15.41
2022-11-04T19:17:37.360Z,16.02
2022-11-04T19:20:11.326Z,15.76
2022-11-04T19:22:40.284Z,14.00
2022-11-04T19:25:08.808Z,13.70
2022-11-04T19:27:38.027Z,13.57
2022-11-04T19:30:06.660Z,13.51
2022-11-04T19:32:34.437Z,13.46
2022-11-04T19:35:02.234Z,13.54
2022-11-04T19:37:31.281Z,13.41
2022-11-04T19:39:59.173Z,13.50
2022-11-04T19:42:44.478Z,13.49
2022-11-04T19:45:13.506Z,13.44
2022-11-04T19:47:41.251Z,13.36
2022-11-04T19:50:09.335Z,13.37
2022-11-04T19:52:37.223Z,13.41
2022-11-04T19:55:05.348Z,13.37
2022-11-04T19:57:33.233Z,13.38
2022-11-04T20:00:01.013Z,13.29
2022-11-04T20:02:30.189Z,13.13
2022-11-04T20:04:58.376Z,13.04
2022-11-04T20:07:26.183Z,12.96
2022-11-04T20:09:54.709Z,12.89
2022-11-04T20:12:40.079Z,12.81
2022-11-04T20:15:09.373Z,12.76
2022-11-04T20:17:38.501Z,12.90
2022-11-04T20:20:07.176Z,15.03
2022-11-04T20:22:34.964Z,12.87
2022-11-04T20:25:02.771Z,12.62
2022-11-04T20:27:31.209Z,12.42
2022-11-04T20:29:58.957Z,12.29
2022-11-04T20:32:26.740Z,12.24
2022-11-04T20:34:55.869Z,12.14
2022-11-04T20:37:25.563Z,12.15
2022-11-04T20:39:53.479Z,12.17
2022-11-04T20:42:21.308Z,12.09
2022-11-04T20:44:49.077Z,12.01
2022-11-04T20:47:17.430Z,11.90
2022-11-04T20:49:45.747Z,11.89
2022-11-04T20:52:15.530Z,11.72
2022-11-04T20:54:43.248Z,11.65
2022-11-04T20:57:11.020Z,11.62
2022-11-04T20:59:38.748Z,11.74
2022-11-04T21:02:06.645Z,11.84
2022-11-04T21:04:36.302Z,11.89
2022-11-04T21:07:04.592Z,11.81
2022-11-04T21:09:33.787Z,11.88
2022-11-04T21:12:01.594Z,11.99
2022-11-04T21:14:31.528Z,11.86
2022-11-04T21:16:59.285Z,11.87
2022-11-04T21:19:27.054Z,11.99
2022-11-04T21:21:54.932Z,12.10
2022-11-04T21:24:22.646Z,12.14
2022-11-04T21:26:51.779Z,11.99
2022-11-04T21:29:20.755Z,11.76
2022-11-04T21:31:49.030Z,11.92
2022-11-04T21:34:17.105Z,11.80
2022-11-04T21:36:45.511Z,12.11
2022-11-04T21:39:13.367Z,12.05
2022-11-04T21:41:41.125Z,11.97
2022-11-04T21:44:11.716Z,12.10
2022-11-04T21:46:39.528Z,12.26
2022-11-04T21:49:07.292Z,12.26
2022-11-04T21:51:35.713Z,12.20
2022-11-04T21:54:06.945Z,12.49
2022-11-04T21:56:35.288Z,12.22
2022-11-04T21:59:03.334Z,12.20
2022-11-04T22:01:32.776Z,12.35
2022-11-04T22:04:01.700Z,12.19
2022-11-04T22:06:34.627Z,12.27
2022-11-04T22:09:04.705Z,12.48
2022-11-04T22:11:34.166Z,12.38
2022-11-04T22:14:03.825Z,14.32
2022-11-04T22:16:34.122Z,14.77
2022-11-04T22:19:03.185Z,14.66
2022-11-04T22:21:31.927Z,14.91
2022-11-04T22:24:00.195Z,14.76
2022-11-04T22:26:29.671Z,15.12
2022-11-04T22:28:57.738Z,14.79
2022-11-04T22:31:27.313Z,14.67
2022-11-04T22:33:56.943Z,14.94
2022-11-04T22:36:24.773Z,13.22
2022-11-04T22:38:52.819Z,13.16
2022-11-04T22:41:22.357Z,13.14
2022-11-04T22:43:50.075Z,13.16
2022-11-04T22:46:20.129Z,13.11
2022-11-04T22:48:48.280Z,13.01
2022-11-04T22:51:17.755Z,12.97
2022-11-04T22:53:48.022Z,12.77
2022-11-04T22:56:17.833Z,14.32
2022-11-04T22:58:45.578Z,14.58
2022-11-04T23:01:15.706Z,14.92
2022-11-04T23:03:43.788Z,14.53
2022-11-04T23:06:11.688Z,15.06
2022-11-04T23:08:42.328Z,15.05
2022-11-04T23:11:30.251Z,14.52
2022-11-04T23:14:20.453Z,14.74
2022-11-04T23:17:08.615Z,14.92
2022-11-04T23:19:36.522Z,14.83
2022-11-04T23:22:21.548Z,14.78
2022-11-04T23:25:10.354Z,14.75
2022-11-04T23:27:58.069Z,14.81
2022-11-04T23:30:27.428Z,13.41
2022-11-04T23:32:56.349Z,14.30
2022-11-04T23:35:42.646Z,14.48
2022-11-04T23:38:10.759Z,14.34
2022-11-04T23:40:40.299Z,13.75
2022-11-04T23:43:08.379Z,14.18
2022-11-04T23:45:54.021Z,14.03
2022-11-04T23:48:39.313Z,14.08
2022-11-04T23:51:24.758Z,14.31
2022-11-04T23:54:10.305Z,13.12
2022-11-04T23:56:56.835Z,14.66
2022-11-04T23:59:42.012Z,14.74
